EZS129 LSZH-ENGM
Flight info
| Callsign | EZS129 |
|---|---|
| Flight time | 2h 15m |
| Altitude | 36000 |
| Route | DEGES Z1 ETAGO DCT HAREM/N0448F370 DCT LOHRE DCT ELNAT/N0453F360 DCT DOSUR DCT PIPEX/N0457F370 M609 RIPAM |
| Aircraft | A320/M-SDE3FGHIRWY/LB1 |
Departure
| Time | 2026-05-04 18:26 |
|---|---|
| Airport | Zürich Airport (LSZH) |
Arrival
| Time | 2026-05-04 20:42 |
|---|---|
| Airport | Oslo-Gardermoen International Airport (ENGM) |
| Time | Latitude | Longitude | Altitude | Speed | Heading |
|---|---|---|---|---|---|
| 2026-05-04 18:03 | 47.46102 | 8.55140 | 1397 ft | 0 kts | 65° |
| 2026-05-04 18:13 | 47.46102 | 8.55139 | 1397 ft | 1 kts | 65° |
| 2026-05-04 18:14 | 47.46093 | 8.55109 | 1405 ft | 4 kts | 65° |
| 2026-05-04 18:14 | 47.46084 | 8.55080 | 1404 ft | 4 kts | 65° |
| 2026-05-04 18:14 | 47.46075 | 8.55054 | 1405 ft | 4 kts | 113° |
| 2026-05-04 18:15 | 47.46109 | 8.55024 | 1400 ft | 0 kts | 155° |
| 2026-05-04 18:15 | 47.46108 | 8.55024 | 1394 ft | 0 kts | 155° |
| 2026-05-04 18:17 | 47.46090 | 8.55037 | 1403 ft | 9 kts | 155° |
| 2026-05-04 18:17 | 47.46030 | 8.55077 | 1395 ft | 9 kts | 155° |
| 2026-05-04 18:17 | 47.45919 | 8.55155 | 1401 ft | 7 kts | 147° |
| 2026-05-04 18:18 | 47.45897 | 8.55203 | 1400 ft | 6 kts | 107° |
| 2026-05-04 18:18 | 47.45892 | 8.55292 | 1395 ft | 12 kts | 90° |
| 2026-05-04 18:18 | 47.45885 | 8.55411 | 1392 ft | 0 kts | 97° |
| 2026-05-04 18:19 | 47.45885 | 8.55412 | 1392 ft | 1 kts | 97° |
| 2026-05-04 18:20 | 47.45879 | 8.55481 | 1395 ft | 12 kts | 96° |
| 2026-05-04 18:20 | 47.45866 | 8.55633 | 1402 ft | 14 kts | 98° |
| 2026-05-04 18:20 | 47.45860 | 8.55703 | 1402 ft | 0 kts | 95° |
| 2026-05-04 18:21 | 47.45858 | 8.55729 | 1399 ft | 6 kts | 95° |
| 2026-05-04 18:21 | 47.45853 | 8.55842 | 1399 ft | 17 kts | 94° |
| 2026-05-04 18:22 | 47.45837 | 8.56063 | 1402 ft | 26 kts | 98° |
| 2026-05-04 18:22 | 47.45816 | 8.56350 | 1400 ft | 30 kts | 95° |
| 2026-05-04 18:22 | 47.45796 | 8.56664 | 1401 ft | 29 kts | 96° |
| 2026-05-04 18:22 | 47.45781 | 8.56901 | 1396 ft | 20 kts | 92° |
| 2026-05-04 18:23 | 47.45753 | 8.57015 | 1407 ft | 0 kts | 139° |
| 2026-05-04 18:24 | 47.45749 | 8.57019 | 1396 ft | 2 kts | 144° |
| 2026-05-04 18:24 | 47.45719 | 8.57033 | 1404 ft | 7 kts | 171° |
| 2026-05-04 18:24 | 47.45675 | 8.57018 | 1405 ft | 5 kts | 216° |
| 2026-05-04 18:25 | 47.45663 | 8.56957 | 1400 ft | 11 kts | 279° |
| 2026-05-04 18:25 | 47.45668 | 8.56905 | 1399 ft | 0 kts | 275° |
| 2026-05-04 18:25 | 47.45671 | 8.56845 | 1398 ft | 32 kts | 276° |
| 2026-05-04 18:26 | 47.45722 | 8.56123 | 1404 ft | 104 kts | 276° |
| 2026-05-04 18:26 | 47.45817 | 8.54781 | 1407 ft | 156 kts | 275° |
| 2026-05-04 18:26 | 47.45926 | 8.53135 | 1937 ft | 160 kts | 276° |
| 2026-05-04 18:26 | 47.46031 | 8.51604 | 2888 ft | 139 kts | 278° |
| 2026-05-04 18:27 | 47.46139 | 8.50185 | 3502 ft | 141 kts | 277° |
| 2026-05-04 18:27 | 47.46249 | 8.48670 | 3843 ft | 158 kts | 272° |
| 2026-05-04 18:27 | 47.45900 | 8.47041 | 4072 ft | 182 kts | 234° |
| 2026-05-04 18:27 | 47.44922 | 8.45762 | 4464 ft | 192 kts | 221° |
| 2026-05-04 18:28 | 47.44000 | 8.44348 | 4936 ft | 193 kts | 237° |
| 2026-05-04 18:28 | 47.43500 | 8.42502 | 5410 ft | 196 kts | 253° |
| 2026-05-04 18:28 | 47.43147 | 8.40556 | 5892 ft | 197 kts | 252° |
| 2026-05-04 18:28 | 47.42761 | 8.38601 | 6351 ft | 199 kts | 245° |
| 2026-05-04 18:29 | 47.41923 | 8.37006 | 6772 ft | 198 kts | 215° |
| 2026-05-04 18:29 | 47.40668 | 8.36240 | 7223 ft | 198 kts | 187° |
| 2026-05-04 18:29 | 47.39314 | 8.36469 | 7673 ft | 199 kts | 159° |
| 2026-05-04 18:29 | 47.38195 | 8.37668 | 8122 ft | 204 kts | 131° |
| 2026-05-04 18:30 | 47.37778 | 8.41754 | 9013 ft | 220 kts | 69° |
| 2026-05-04 18:30 | 47.38744 | 8.43509 | 9442 ft | 226 kts | 35° |
| 2026-05-04 18:30 | 47.40120 | 8.44666 | 9843 ft | 229 kts | 29° |
| 2026-05-04 18:31 | 47.41414 | 8.46029 | 10245 ft | 230 kts | 46° |
| 2026-05-04 18:31 | 47.42412 | 8.47860 | 10651 ft | 230 kts | 56° |
| 2026-05-04 18:31 | 47.43346 | 8.49756 | 11022 ft | 232 kts | 55° |
| 2026-05-04 18:31 | 47.44302 | 8.51697 | 11417 ft | 234 kts | 55° |
| 2026-05-04 18:32 | 47.45136 | 8.53764 | 11783 ft | 235 kts | 67° |
| 2026-05-04 18:32 | 47.45662 | 8.56056 | 12155 ft | 236 kts | 80° |
| 2026-05-04 18:32 | 47.45861 | 8.58455 | 12539 ft | 236 kts | 90° |
| 2026-05-04 18:32 | 47.45943 | 8.60890 | 12926 ft | 238 kts | 90° |
| 2026-05-04 18:33 | 47.46028 | 8.63350 | 13304 ft | 241 kts | 90° |
| 2026-05-04 18:33 | 47.46115 | 8.65835 | 13690 ft | 244 kts | 90° |
| 2026-05-04 18:33 | 47.46207 | 8.68348 | 14036 ft | 246 kts | 90° |
| 2026-05-04 18:33 | 47.46300 | 8.70880 | 14373 ft | 248 kts | 90° |
| 2026-05-04 18:34 | 47.46395 | 8.73427 | 14724 ft | 249 kts | 90° |
| 2026-05-04 18:34 | 47.46491 | 8.75989 | 15078 ft | 250 kts | 90° |
| 2026-05-04 18:34 | 47.46587 | 8.78563 | 15400 ft | 252 kts | 90° |
| 2026-05-04 18:34 | 47.46622 | 8.81145 | 15773 ft | 250 kts | 95° |
| 2026-05-04 18:35 | 47.46476 | 8.83703 | 16126 ft | 250 kts | 102° |
| 2026-05-04 18:35 | 47.46155 | 8.86222 | 16448 ft | 250 kts | 106° |
| 2026-05-04 18:35 | 47.45782 | 8.88735 | 16766 ft | 251 kts | 107° |
| 2026-05-04 18:35 | 47.45409 | 8.91274 | 17055 ft | 254 kts | 107° |
| 2026-05-04 18:36 | 47.45041 | 8.93840 | 17377 ft | 256 kts | 106° |
| 2026-05-04 18:36 | 47.44674 | 8.96423 | 17695 ft | 258 kts | 106° |
| 2026-05-04 18:36 | 47.44304 | 8.99019 | 18025 ft | 259 kts | 106° |
| 2026-05-04 18:36 | 47.43933 | 9.01627 | 18337 ft | 261 kts | 106° |
| 2026-05-04 18:37 | 47.43558 | 9.04251 | 18606 ft | 262 kts | 107° |
| 2026-05-04 18:37 | 47.43178 | 9.06881 | 18883 ft | 262 kts | 107° |
| 2026-05-04 18:37 | 47.42797 | 9.09521 | 19163 ft | 263 kts | 107° |
| 2026-05-04 18:37 | 47.42434 | 9.12178 | 19425 ft | 265 kts | 103° |
| 2026-05-04 18:38 | 47.42244 | 9.14903 | 19695 ft | 268 kts | 97° |
| 2026-05-04 18:38 | 47.42263 | 9.17671 | 19960 ft | 271 kts | 90° |
| 2026-05-04 18:38 | 47.42495 | 9.20449 | 20203 ft | 274 kts | 82° |
| 2026-05-04 18:38 | 47.42939 | 9.23193 | 20466 ft | 276 kts | 76° |
| 2026-05-04 18:39 | 47.43594 | 9.25867 | 20725 ft | 279 kts | 69° |
| 2026-05-04 18:39 | 47.44455 | 9.28444 | 20975 ft | 281 kts | 62° |
| 2026-05-04 18:39 | 47.45430 | 9.30952 | 21227 ft | 282 kts | 62° |
| 2026-05-04 18:39 | 47.46464 | 9.33373 | 21463 ft | 283 kts | 56° |
| 2026-05-04 18:40 | 47.47693 | 9.35662 | 21685 ft | 285 kts | 49° |
| 2026-05-04 18:40 | 47.49081 | 9.37761 | 21911 ft | 286 kts | 42° |
| 2026-05-04 18:40 | 47.50614 | 9.39652 | 22112 ft | 289 kts | 36° |
| 2026-05-04 18:40 | 47.52321 | 9.41332 | 22210 ft | 302 kts | 28° |
| 2026-05-04 18:41 | 47.54244 | 9.42788 | 22351 ft | 319 kts | 21° |
| 2026-05-04 18:41 | 47.56368 | 9.43965 | 22488 ft | 335 kts | 16° |
| 2026-05-04 18:41 | 47.58646 | 9.45021 | 22624 ft | 350 kts | 10° |
| 2026-05-04 18:41 | 47.61094 | 9.45600 | 22767 ft | 364 kts | 2° |
| 2026-05-04 18:42 | 47.63668 | 9.45834 | 22910 ft | 378 kts | 359° |
| 2026-05-04 18:42 | 47.66344 | 9.45885 | 23048 ft | 392 kts | 357° |
| 2026-05-04 18:42 | 47.69116 | 9.45877 | 23186 ft | 405 kts | 357° |
| 2026-05-04 18:42 | 47.71984 | 9.45890 | 23325 ft | 418 kts | 358° |
| 2026-05-04 18:43 | 47.74933 | 9.45957 | 23464 ft | 430 kts | 359° |
| 2026-05-04 18:43 | 47.77968 | 9.46085 | 23594 ft | 442 kts | 359° |
| 2026-05-04 18:43 | 47.81073 | 9.46249 | 23710 ft | 452 kts | 359° |
| 2026-05-04 18:43 | 47.84246 | 9.46350 | 23875 ft | 459 kts | 358° |
| 2026-05-04 18:44 | 47.87451 | 9.46372 | 24195 ft | 462 kts | 358° |
| 2026-05-04 18:44 | 47.89584 | 9.46359 | 24422 ft | 464 kts | 357° |
| 2026-05-04 18:44 | 47.93918 | 9.46299 | 24869 ft | 467 kts | 357° |
| 2026-05-04 18:44 | 47.97174 | 9.46251 | 25191 ft | 470 kts | 357° |
| 2026-05-04 18:45 | 48.00451 | 9.46214 | 25512 ft | 472 kts | 358° |
| 2026-05-04 18:45 | 48.03745 | 9.46193 | 25824 ft | 474 kts | 358° |
| 2026-05-04 18:45 | 48.07050 | 9.46185 | 26148 ft | 476 kts | 358° |
| 2026-05-04 18:45 | 48.10370 | 9.46183 | 26464 ft | 478 kts | 358° |
| 2026-05-04 18:46 | 48.13706 | 9.46186 | 26759 ft | 480 kts | 358° |
| 2026-05-04 18:46 | 48.17052 | 9.46191 | 27047 ft | 482 kts | 358° |
| 2026-05-04 18:46 | 48.20418 | 9.46191 | 27331 ft | 485 kts | 358° |
| 2026-05-04 18:46 | 48.23797 | 9.46191 | 27614 ft | 487 kts | 358° |
| 2026-05-04 18:47 | 48.27184 | 9.46192 | 28004 ft | 487 kts | 358° |
| 2026-05-04 18:47 | 48.30581 | 9.46192 | 28337 ft | 488 kts | 358° |
| 2026-05-04 18:47 | 48.33981 | 9.46194 | 28695 ft | 489 kts | 358° |
| 2026-05-04 18:47 | 48.37381 | 9.46198 | 29077 ft | 489 kts | 358° |
| 2026-05-04 18:48 | 48.40780 | 9.46203 | 29457 ft | 489 kts | 358° |
| 2026-05-04 18:48 | 48.44183 | 9.46207 | 29840 ft | 489 kts | 358° |
| 2026-05-04 18:48 | 48.47577 | 9.46209 | 30217 ft | 488 kts | 358° |
| 2026-05-04 18:48 | 48.50972 | 9.46214 | 30572 ft | 487 kts | 358° |
| 2026-05-04 18:49 | 48.54358 | 9.46219 | 30931 ft | 486 kts | 358° |
| 2026-05-04 18:49 | 48.57736 | 9.46205 | 31272 ft | 485 kts | 357° |
| 2026-05-04 18:49 | 48.61106 | 9.46170 | 31651 ft | 484 kts | 357° |
| 2026-05-04 18:49 | 48.64468 | 9.46123 | 32022 ft | 483 kts | 357° |
| 2026-05-04 18:50 | 48.67823 | 9.46072 | 32396 ft | 481 kts | 357° |
| 2026-05-04 18:50 | 48.71125 | 9.46020 | 32767 ft | 480 kts | 357° |
| 2026-05-04 18:50 | 48.74461 | 9.45963 | 33128 ft | 479 kts | 356° |
| 2026-05-04 18:50 | 48.77790 | 9.45850 | 33494 ft | 478 kts | 356° |
| 2026-05-04 18:51 | 48.81103 | 9.45681 | 33853 ft | 476 kts | 355° |
| 2026-05-04 18:51 | 48.84414 | 9.45480 | 34181 ft | 475 kts | 355° |
| 2026-05-04 18:51 | 48.87712 | 9.45277 | 34493 ft | 474 kts | 355° |
| 2026-05-04 18:51 | 48.91007 | 9.45084 | 34800 ft | 474 kts | 355° |
| 2026-05-04 18:52 | 48.94300 | 9.44903 | 35105 ft | 473 kts | 355° |
| 2026-05-04 18:52 | 48.97599 | 9.44731 | 35391 ft | 472 kts | 355° |
| 2026-05-04 18:52 | 49.00868 | 9.44567 | 35672 ft | 472 kts | 355° |
| 2026-05-04 18:52 | 49.04141 | 9.44406 | 35908 ft | 471 kts | 355° |
| 2026-05-04 18:53 | 49.07426 | 9.44244 | 35977 ft | 473 kts | 355° |
| 2026-05-04 18:53 | 49.14011 | 9.43915 | 35985 ft | 474 kts | 355° |
| 2026-05-04 18:54 | 49.20596 | 9.43587 | 35977 ft | 473 kts | 355° |
| 2026-05-04 18:54 | 49.27182 | 9.43248 | 35977 ft | 473 kts | 355° |
| 2026-05-04 18:55 | 49.33767 | 9.42903 | 35978 ft | 473 kts | 355° |
| 2026-05-04 18:55 | 49.43649 | 9.42391 | 35985 ft | 474 kts | 355° |
| 2026-05-04 18:56 | 49.50245 | 9.42049 | 35997 ft | 475 kts | 355° |
| 2026-05-04 18:56 | 49.56894 | 9.41700 | 35992 ft | 475 kts | 355° |
| 2026-05-04 18:57 | 49.63470 | 9.41681 | 35991 ft | 478 kts | 3° |
| 2026-05-04 18:57 | 49.70088 | 9.42748 | 35989 ft | 479 kts | 4° |
| 2026-05-04 18:58 | 49.76718 | 9.43815 | 35987 ft | 479 kts | 3° |
| 2026-05-04 18:58 | 49.83349 | 9.44873 | 36000 ft | 479 kts | 3° |
| 2026-05-04 18:59 | 49.89971 | 9.45929 | 35998 ft | 479 kts | 3° |
| 2026-05-04 18:59 | 49.96594 | 9.46996 | 35994 ft | 478 kts | 3° |
| 2026-05-04 19:00 | 50.03215 | 9.48065 | 35990 ft | 478 kts | 3° |
| 2026-05-04 19:00 | 50.09840 | 9.49147 | 35994 ft | 479 kts | 3° |
| 2026-05-04 19:01 | 50.16467 | 9.50312 | 35988 ft | 479 kts | 4° |
| 2026-05-04 19:01 | 50.23094 | 9.51523 | 35989 ft | 480 kts | 4° |
| 2026-05-04 19:02 | 50.29723 | 9.52715 | 35994 ft | 480 kts | 3° |
| 2026-05-04 19:02 | 50.36359 | 9.53892 | 35989 ft | 480 kts | 3° |
| 2026-05-04 19:03 | 50.42992 | 9.55065 | 35990 ft | 480 kts | 3° |
| 2026-05-04 19:03 | 50.49631 | 9.56236 | 36005 ft | 480 kts | 3° |
| 2026-05-04 19:04 | 50.56263 | 9.57418 | 36001 ft | 479 kts | 3° |
| 2026-05-04 19:04 | 50.62887 | 9.58615 | 35997 ft | 479 kts | 3° |
| 2026-05-04 19:05 | 50.69507 | 9.59814 | 35996 ft | 479 kts | 3° |
| 2026-05-04 19:05 | 50.76128 | 9.61007 | 35995 ft | 479 kts | 3° |
| 2026-05-04 19:06 | 50.82749 | 9.62203 | 35995 ft | 479 kts | 3° |
| 2026-05-04 19:06 | 50.89366 | 9.63404 | 35993 ft | 479 kts | 3° |
| 2026-05-04 19:07 | 50.95984 | 9.64604 | 35994 ft | 479 kts | 3° |
| 2026-05-04 19:07 | 51.02556 | 9.65809 | 35991 ft | 478 kts | 3° |
| 2026-05-04 19:08 | 51.09208 | 9.67044 | 35993 ft | 479 kts | 3° |
| 2026-05-04 19:08 | 51.15786 | 9.68250 | 35995 ft | 478 kts | 3° |
| 2026-05-04 19:09 | 51.22390 | 9.68848 | 36007 ft | 472 kts | 351° |
| 2026-05-04 19:09 | 51.28926 | 9.68014 | 35990 ft | 471 kts | 351° |
| 2026-05-04 19:10 | 51.35460 | 9.67204 | 36007 ft | 471 kts | 351° |
| 2026-05-04 19:10 | 51.41991 | 9.66389 | 36029 ft | 471 kts | 351° |
| 2026-05-04 19:11 | 51.48522 | 9.65570 | 36028 ft | 470 kts | 351° |
| 2026-05-04 19:11 | 51.55042 | 9.64748 | 36024 ft | 470 kts | 351° |
| 2026-05-04 19:12 | 51.64834 | 9.63494 | 36010 ft | 471 kts | 351° |
| 2026-05-04 19:13 | 51.70266 | 9.62804 | 36017 ft | 471 kts | 351° |
| 2026-05-04 19:13 | 51.76801 | 9.61977 | 36007 ft | 471 kts | 351° |
| 2026-05-04 19:14 | 51.83337 | 9.61141 | 36000 ft | 471 kts | 351° |
| 2026-05-04 19:14 | 51.89868 | 9.60297 | 36008 ft | 471 kts | 351° |
| 2026-05-04 19:15 | 51.96404 | 9.59453 | 36005 ft | 471 kts | 351° |
| 2026-05-04 19:15 | 52.04039 | 9.58452 | 36000 ft | 470 kts | 351° |
| 2026-05-04 19:16 | 52.09463 | 9.57743 | 35996 ft | 471 kts | 351° |
| 2026-05-04 19:16 | 52.15995 | 9.56902 | 36011 ft | 471 kts | 351° |
| 2026-05-04 19:17 | 52.22518 | 9.56059 | 36000 ft | 470 kts | 351° |
| 2026-05-04 19:17 | 52.29036 | 9.55202 | 35996 ft | 470 kts | 351° |
| 2026-05-04 19:18 | 52.35545 | 9.54352 | 35994 ft | 469 kts | 351° |
| 2026-05-04 19:18 | 52.42061 | 9.53494 | 36006 ft | 469 kts | 351° |
| 2026-05-04 19:19 | 52.48562 | 9.52621 | 36000 ft | 469 kts | 350° |
| 2026-05-04 19:19 | 52.55020 | 9.51765 | 35995 ft | 468 kts | 351° |
| 2026-05-04 19:20 | 52.61514 | 9.50913 | 35990 ft | 468 kts | 351° |
| 2026-05-04 19:20 | 52.68005 | 9.50044 | 35996 ft | 468 kts | 350° |
| 2026-05-04 19:21 | 52.74496 | 9.49162 | 35985 ft | 468 kts | 350° |
| 2026-05-04 19:21 | 52.80983 | 9.48290 | 35977 ft | 468 kts | 350° |
| 2026-05-04 19:22 | 52.87472 | 9.47424 | 35997 ft | 468 kts | 350° |
| 2026-05-04 19:22 | 52.93956 | 9.46563 | 35991 ft | 467 kts | 350° |
| 2026-05-04 19:23 | 53.00437 | 9.45703 | 35992 ft | 467 kts | 351° |
| 2026-05-04 19:23 | 53.06939 | 9.45167 | 35989 ft | 468 kts | 353° |
| 2026-05-04 19:24 | 53.13458 | 9.44878 | 35989 ft | 469 kts | 353° |
| 2026-05-04 19:24 | 53.19971 | 9.44559 | 35990 ft | 468 kts | 353° |
| 2026-05-04 19:25 | 53.26479 | 9.44154 | 35994 ft | 468 kts | 353° |
| 2026-05-04 19:25 | 53.32990 | 9.43728 | 35993 ft | 468 kts | 353° |
| 2026-05-04 19:26 | 53.39498 | 9.43310 | 36016 ft | 468 kts | 353° |
| 2026-05-04 19:26 | 53.45989 | 9.42915 | 36020 ft | 466 kts | 353° |
| 2026-05-04 19:27 | 53.52470 | 9.42528 | 36018 ft | 466 kts | 353° |
| 2026-05-04 19:27 | 53.58944 | 9.42115 | 36011 ft | 465 kts | 353° |
| 2026-05-04 19:28 | 53.65406 | 9.41697 | 36023 ft | 464 kts | 353° |
| 2026-05-04 19:28 | 53.71852 | 9.41284 | 36014 ft | 463 kts | 353° |
| 2026-05-04 19:29 | 53.78233 | 9.40885 | 36029 ft | 462 kts | 353° |
| 2026-05-04 19:29 | 53.84650 | 9.40483 | 36014 ft | 461 kts | 353° |
| 2026-05-04 19:30 | 53.91058 | 9.40078 | 36024 ft | 461 kts | 353° |
| 2026-05-04 19:30 | 53.97457 | 9.39665 | 36014 ft | 460 kts | 353° |
| 2026-05-04 19:31 | 54.03858 | 9.39249 | 36011 ft | 460 kts | 353° |
| 2026-05-04 19:31 | 54.10256 | 9.38843 | 36008 ft | 460 kts | 353° |
| 2026-05-04 19:32 | 54.16645 | 9.38424 | 36034 ft | 460 kts | 353° |
| 2026-05-04 19:32 | 54.23043 | 9.38008 | 36025 ft | 460 kts | 353° |
| 2026-05-04 19:33 | 54.29438 | 9.37586 | 36019 ft | 460 kts | 353° |
| 2026-05-04 19:33 | 54.35832 | 9.37196 | 36015 ft | 461 kts | 354° |
| 2026-05-04 19:34 | 54.42257 | 9.37402 | 36030 ft | 463 kts | 358° |
| 2026-05-04 19:34 | 54.48698 | 9.38049 | 36022 ft | 464 kts | 359° |
| 2026-05-04 19:35 | 54.55145 | 9.38634 | 36014 ft | 463 kts | 358° |
| 2026-05-04 19:35 | 54.61610 | 9.39068 | 36010 ft | 463 kts | 357° |
| 2026-05-04 19:36 | 54.68030 | 9.39460 | 36036 ft | 463 kts | 358° |
| 2026-05-04 19:36 | 54.74467 | 9.39873 | 36023 ft | 463 kts | 358° |
| 2026-05-04 19:37 | 54.80906 | 9.40313 | 36009 ft | 463 kts | 358° |
| 2026-05-04 19:37 | 54.87301 | 9.40754 | 36009 ft | 463 kts | 358° |
| 2026-05-04 19:38 | 54.93731 | 9.41192 | 36034 ft | 462 kts | 358° |
| 2026-05-04 19:38 | 55.00154 | 9.41634 | 36025 ft | 461 kts | 358° |
| 2026-05-04 19:39 | 55.06560 | 9.42084 | 36021 ft | 461 kts | 358° |
| 2026-05-04 19:39 | 55.12965 | 9.42520 | 36020 ft | 460 kts | 358° |
| 2026-05-04 19:40 | 55.19364 | 9.42958 | 36035 ft | 460 kts | 359° |
| 2026-05-04 19:40 | 55.25754 | 9.43402 | 36029 ft | 459 kts | 359° |
| 2026-05-04 19:41 | 55.32135 | 9.43851 | 36024 ft | 459 kts | 359° |
| 2026-05-04 19:41 | 55.38512 | 9.44287 | 36028 ft | 458 kts | 359° |
| 2026-05-04 19:42 | 55.44882 | 9.44733 | 36033 ft | 458 kts | 359° |
| 2026-05-04 19:42 | 55.51247 | 9.45179 | 36026 ft | 458 kts | 359° |
| 2026-05-04 19:43 | 55.57612 | 9.45628 | 36018 ft | 457 kts | 359° |
| 2026-05-04 19:43 | 55.63967 | 9.46090 | 36014 ft | 457 kts | 359° |
| 2026-05-04 19:44 | 55.70321 | 9.46542 | 36011 ft | 457 kts | 359° |
| 2026-05-04 19:44 | 55.76674 | 9.46993 | 36011 ft | 457 kts | 359° |
| 2026-05-04 19:45 | 55.83026 | 9.47440 | 36008 ft | 457 kts | 359° |
| 2026-05-04 19:45 | 55.89377 | 9.47888 | 36009 ft | 457 kts | 359° |
| 2026-05-04 19:46 | 55.95730 | 9.48349 | 36031 ft | 457 kts | 358° |
| 2026-05-04 19:46 | 56.02076 | 9.48816 | 36021 ft | 457 kts | 358° |
| 2026-05-04 19:46 | 56.05260 | 9.49047 | 36205 ft | 457 kts | 358° |
| 2026-05-04 19:47 | 56.08435 | 9.49275 | 36491 ft | 457 kts | 358° |
| 2026-05-04 19:47 | 56.11610 | 9.49501 | 36729 ft | 457 kts | 358° |
| 2026-05-04 19:47 | 56.14788 | 9.49730 | 36950 ft | 457 kts | 358° |
| 2026-05-04 19:48 | 56.21146 | 9.50201 | 37019 ft | 457 kts | 358° |
| 2026-05-04 19:48 | 56.27511 | 9.50676 | 36991 ft | 458 kts | 358° |
| 2026-05-04 19:49 | 56.33878 | 9.51140 | 36994 ft | 458 kts | 358° |
| 2026-05-04 19:49 | 56.40244 | 9.51602 | 36989 ft | 458 kts | 358° |
| 2026-05-04 19:50 | 56.46613 | 9.52067 | 36989 ft | 458 kts | 358° |
| 2026-05-04 19:50 | 56.52936 | 9.52547 | 37012 ft | 457 kts | 358° |
| 2026-05-04 19:51 | 56.59292 | 9.53023 | 37003 ft | 457 kts | 358° |
| 2026-05-04 19:51 | 56.65642 | 9.53488 | 37001 ft | 457 kts | 358° |
| 2026-05-04 19:52 | 56.71993 | 9.53958 | 36989 ft | 457 kts | 358° |
| 2026-05-04 19:52 | 56.78336 | 9.54444 | 37012 ft | 456 kts | 358° |
| 2026-05-04 19:53 | 56.84671 | 9.54926 | 36997 ft | 455 kts | 357° |
| 2026-05-04 19:53 | 56.90997 | 9.55404 | 36986 ft | 455 kts | 357° |
| 2026-05-04 19:54 | 56.97318 | 9.55877 | 36972 ft | 454 kts | 357° |
| 2026-05-04 19:54 | 57.03633 | 9.56348 | 36995 ft | 454 kts | 357° |
| 2026-05-04 19:55 | 57.09954 | 9.56831 | 36976 ft | 454 kts | 357° |
| 2026-05-04 19:55 | 57.16266 | 9.57323 | 36968 ft | 454 kts | 357° |
| 2026-05-04 19:56 | 57.22578 | 9.57811 | 36964 ft | 454 kts | 357° |
| 2026-05-04 19:56 | 57.28883 | 9.58285 | 37002 ft | 454 kts | 357° |
| 2026-05-04 19:57 | 57.35195 | 9.58769 | 36950 ft | 454 kts | 356° |
| 2026-05-04 19:57 | 57.41505 | 9.59268 | 36945 ft | 454 kts | 356° |
| 2026-05-04 19:58 | 57.47777 | 9.59765 | 36938 ft | 454 kts | 356° |
| 2026-05-04 19:58 | 57.54090 | 9.60260 | 36937 ft | 454 kts | 356° |
| 2026-05-04 19:59 | 57.60402 | 9.60743 | 36934 ft | 454 kts | 356° |
| 2026-05-04 19:59 | 57.66717 | 9.61236 | 36924 ft | 454 kts | 356° |
| 2026-05-04 20:00 | 57.73040 | 9.61751 | 36911 ft | 455 kts | 356° |
| 2026-05-04 20:00 | 57.79358 | 9.62253 | 36899 ft | 454 kts | 356° |
| 2026-05-04 20:01 | 57.85677 | 9.62756 | 36931 ft | 455 kts | 355° |
| 2026-05-04 20:01 | 57.90932 | 9.63171 | 36904 ft | 455 kts | 355° |
| 2026-05-04 20:02 | 57.97259 | 9.63681 | 36895 ft | 455 kts | 355° |
| 2026-05-04 20:02 | 58.03587 | 9.64194 | 36880 ft | 455 kts | 355° |
| 2026-05-04 20:03 | 58.09918 | 9.64717 | 36878 ft | 456 kts | 355° |
| 2026-05-04 20:03 | 58.16259 | 9.65226 | 36901 ft | 456 kts | 355° |
| 2026-05-04 20:04 | 58.22608 | 9.65725 | 36877 ft | 457 kts | 355° |
| 2026-05-04 20:04 | 58.28955 | 9.66248 | 36868 ft | 457 kts | 355° |
| 2026-05-04 20:05 | 58.35308 | 9.66795 | 36854 ft | 457 kts | 355° |
| 2026-05-04 20:05 | 58.41664 | 9.67323 | 36823 ft | 458 kts | 355° |
| 2026-05-04 20:05 | 58.44848 | 9.67574 | 36548 ft | 457 kts | 355° |
| 2026-05-04 20:06 | 58.48028 | 9.67826 | 36293 ft | 457 kts | 355° |
| 2026-05-04 20:06 | 58.51206 | 9.68083 | 36037 ft | 457 kts | 355° |
| 2026-05-04 20:06 | 58.54387 | 9.68349 | 35731 ft | 457 kts | 355° |
| 2026-05-04 20:06 | 58.57550 | 9.68622 | 35318 ft | 451 kts | 355° |
| 2026-05-04 20:07 | 58.60635 | 9.68902 | 35139 ft | 438 kts | 354° |
| 2026-05-04 20:07 | 58.63651 | 9.69171 | 34669 ft | 431 kts | 354° |
| 2026-05-04 20:07 | 58.66626 | 9.69424 | 34280 ft | 426 kts | 353° |
| 2026-05-04 20:07 | 58.69571 | 9.69665 | 33853 ft | 422 kts | 353° |
| 2026-05-04 20:08 | 58.72496 | 9.69904 | 33333 ft | 419 kts | 353° |
| 2026-05-04 20:08 | 58.75396 | 9.70147 | 32826 ft | 415 kts | 353° |
| 2026-05-04 20:08 | 58.78268 | 9.70386 | 32330 ft | 412 kts | 353° |
| 2026-05-04 20:08 | 58.81118 | 9.70624 | 31835 ft | 408 kts | 352° |
| 2026-05-04 20:09 | 58.83944 | 9.70860 | 31353 ft | 405 kts | 352° |
| 2026-05-04 20:09 | 58.86714 | 9.71095 | 30888 ft | 402 kts | 352° |
| 2026-05-04 20:09 | 58.89495 | 9.71331 | 30421 ft | 399 kts | 352° |
| 2026-05-04 20:09 | 58.92257 | 9.71567 | 29953 ft | 396 kts | 352° |
| 2026-05-04 20:10 | 58.94998 | 9.71798 | 29432 ft | 393 kts | 352° |
| 2026-05-04 20:10 | 58.97716 | 9.72026 | 29010 ft | 389 kts | 352° |
| 2026-05-04 20:10 | 59.00404 | 9.72252 | 28506 ft | 385 kts | 352° |
| 2026-05-04 20:10 | 59.03072 | 9.72473 | 28016 ft | 382 kts | 352° |
| 2026-05-04 20:11 | 59.05716 | 9.72690 | 27540 ft | 379 kts | 352° |
| 2026-05-04 20:11 | 59.08339 | 9.72905 | 27053 ft | 376 kts | 352° |
| 2026-05-04 20:11 | 59.10937 | 9.73127 | 26603 ft | 373 kts | 352° |
| 2026-05-04 20:11 | 59.13518 | 9.73350 | 26162 ft | 370 kts | 352° |
| 2026-05-04 20:12 | 59.16079 | 9.73573 | 25721 ft | 367 kts | 352° |
| 2026-05-04 20:12 | 59.18620 | 9.73789 | 25269 ft | 364 kts | 352° |
| 2026-05-04 20:12 | 59.21137 | 9.74005 | 24844 ft | 361 kts | 352° |
| 2026-05-04 20:12 | 59.23635 | 9.74219 | 24409 ft | 358 kts | 352° |
| 2026-05-04 20:13 | 59.26115 | 9.74428 | 23990 ft | 356 kts | 351° |
| 2026-05-04 20:13 | 59.28582 | 9.74640 | 23579 ft | 354 kts | 351° |
| 2026-05-04 20:13 | 59.31032 | 9.74852 | 23148 ft | 351 kts | 352° |
| 2026-05-04 20:13 | 59.33484 | 9.75437 | 22684 ft | 360 kts | 1° |
| 2026-05-04 20:14 | 59.35921 | 9.76707 | 22224 ft | 363 kts | 5° |
| 2026-05-04 20:14 | 59.38341 | 9.78060 | 21780 ft | 360 kts | 5° |
| 2026-05-04 20:14 | 59.40742 | 9.79408 | 21325 ft | 358 kts | 5° |
| 2026-05-04 20:14 | 59.43129 | 9.80748 | 20926 ft | 356 kts | 5° |
| 2026-05-04 20:15 | 59.45500 | 9.82073 | 20495 ft | 353 kts | 5° |
| 2026-05-04 20:15 | 59.47853 | 9.83382 | 20062 ft | 351 kts | 5° |
| 2026-05-04 20:15 | 59.50194 | 9.84682 | 19676 ft | 348 kts | 4° |
| 2026-05-04 20:15 | 59.52520 | 9.85978 | 19329 ft | 347 kts | 4° |
| 2026-05-04 20:16 | 59.54841 | 9.87274 | 18972 ft | 346 kts | 4° |
| 2026-05-04 20:16 | 59.57149 | 9.88572 | 18690 ft | 345 kts | 4° |
| 2026-05-04 20:16 | 59.59456 | 9.89866 | 18448 ft | 345 kts | 4° |
| 2026-05-04 20:16 | 59.61761 | 9.91159 | 18210 ft | 344 kts | 4° |
| 2026-05-04 20:17 | 59.64050 | 9.92451 | 17906 ft | 340 kts | 4° |
| 2026-05-04 20:17 | 59.66320 | 9.93736 | 17495 ft | 339 kts | 4° |
| 2026-05-04 20:17 | 59.68582 | 9.95011 | 17186 ft | 336 kts | 4° |
| 2026-05-04 20:17 | 59.70826 | 9.96268 | 16835 ft | 334 kts | 4° |
| 2026-05-04 20:18 | 59.73056 | 9.97512 | 16467 ft | 332 kts | 4° |
| 2026-05-04 20:18 | 59.75274 | 9.98752 | 16104 ft | 330 kts | 4° |
| 2026-05-04 20:18 | 59.77445 | 9.99966 | 15777 ft | 328 kts | 4° |
| 2026-05-04 20:18 | 59.79632 | 10.01194 | 15549 ft | 326 kts | 4° |
| 2026-05-04 20:19 | 59.81801 | 10.02417 | 15235 ft | 323 kts | 4° |
| 2026-05-04 20:19 | 59.83955 | 10.03627 | 14911 ft | 321 kts | 4° |
| 2026-05-04 20:19 | 59.86096 | 10.04830 | 14596 ft | 319 kts | 4° |
| 2026-05-04 20:19 | 59.88221 | 10.06029 | 14270 ft | 317 kts | 4° |
| 2026-05-04 20:20 | 59.90336 | 10.07226 | 13979 ft | 315 kts | 4° |
| 2026-05-04 20:20 | 59.92435 | 10.08416 | 13675 ft | 313 kts | 4° |
| 2026-05-04 20:20 | 59.94525 | 10.09603 | 13357 ft | 311 kts | 5° |
| 2026-05-04 20:20 | 59.96601 | 10.10791 | 13022 ft | 310 kts | 5° |
| 2026-05-04 20:21 | 59.98664 | 10.11981 | 12658 ft | 308 kts | 5° |
| 2026-05-04 20:21 | 60.00712 | 10.13163 | 12295 ft | 305 kts | 5° |
| 2026-05-04 20:21 | 60.04762 | 10.15491 | 11615 ft | 301 kts | 6° |
| 2026-05-04 20:22 | 60.06769 | 10.16644 | 11344 ft | 300 kts | 6° |
| 2026-05-04 20:22 | 60.08766 | 10.17790 | 11124 ft | 298 kts | 8° |
| 2026-05-04 20:22 | 60.10748 | 10.18933 | 10863 ft | 295 kts | 8° |
| 2026-05-04 20:22 | 60.12715 | 10.20072 | 10578 ft | 293 kts | 8° |
| 2026-05-04 20:23 | 60.14665 | 10.21200 | 10229 ft | 291 kts | 9° |
| 2026-05-04 20:23 | 60.16602 | 10.22324 | 9897 ft | 289 kts | 10° |
| 2026-05-04 20:23 | 60.18524 | 10.23438 | 9552 ft | 287 kts | 10° |
| 2026-05-04 20:23 | 60.20435 | 10.24544 | 9174 ft | 284 kts | 10° |
| 2026-05-04 20:24 | 60.22327 | 10.25642 | 8823 ft | 282 kts | 11° |
| 2026-05-04 20:24 | 60.24199 | 10.26735 | 8512 ft | 277 kts | 11° |
| 2026-05-04 20:24 | 60.26053 | 10.27819 | 8647 ft | 280 kts | 11° |
| 2026-05-04 20:24 | 60.27931 | 10.28909 | 8718 ft | 281 kts | 11° |
| 2026-05-04 20:25 | 60.29812 | 10.30006 | 8730 ft | 282 kts | 11° |
| 2026-05-04 20:25 | 60.31695 | 10.31110 | 8732 ft | 282 kts | 11° |
| 2026-05-04 20:25 | 60.33548 | 10.32433 | 8731 ft | 285 kts | 19° |
| 2026-05-04 20:25 | 60.35356 | 10.34084 | 8761 ft | 285 kts | 20° |
| 2026-05-04 20:26 | 60.37155 | 10.35716 | 8736 ft | 282 kts | 20° |
| 2026-05-04 20:26 | 60.38946 | 10.37334 | 8732 ft | 282 kts | 20° |
| 2026-05-04 20:26 | 60.40735 | 10.38952 | 8732 ft | 282 kts | 20° |
| 2026-05-04 20:26 | 60.42523 | 10.40569 | 8732 ft | 282 kts | 20° |
| 2026-05-04 20:27 | 60.44266 | 10.42155 | 8732 ft | 267 kts | 20° |
| 2026-05-04 20:27 | 60.45909 | 10.43653 | 8733 ft | 252 kts | 18° |
| 2026-05-04 20:27 | 60.47560 | 10.44605 | 8734 ft | 244 kts | 4° |
| 2026-05-04 20:27 | 60.49232 | 10.45169 | 8736 ft | 244 kts | 5° |
| 2026-05-04 20:28 | 60.50880 | 10.45736 | 8734 ft | 243 kts | 5° |
| 2026-05-04 20:28 | 60.52541 | 10.46309 | 8492 ft | 241 kts | 5° |
| 2026-05-04 20:28 | 60.54190 | 10.46862 | 8146 ft | 240 kts | 4° |
| 2026-05-04 20:28 | 60.55830 | 10.47416 | 7858 ft | 238 kts | 5° |
| 2026-05-04 20:29 | 60.57437 | 10.48264 | 7628 ft | 240 kts | 18° |
| 2026-05-04 20:29 | 60.58917 | 10.49842 | 7309 ft | 241 kts | 26° |
| 2026-05-04 20:29 | 60.60365 | 10.51538 | 6997 ft | 239 kts | 26° |
| 2026-05-04 20:29 | 60.61801 | 10.53211 | 6680 ft | 237 kts | 25° |
| 2026-05-04 20:30 | 60.63227 | 10.54868 | 6378 ft | 235 kts | 26° |
| 2026-05-04 20:30 | 60.64645 | 10.56513 | 6051 ft | 234 kts | 26° |
| 2026-05-04 20:30 | 60.66050 | 10.58151 | 5702 ft | 232 kts | 27° |
| 2026-05-04 20:30 | 60.67314 | 10.60202 | 5388 ft | 234 kts | 43° |
| 2026-05-04 20:31 | 60.68155 | 10.63056 | 5106 ft | 238 kts | 70° |
| 2026-05-04 20:31 | 60.68256 | 10.66440 | 4983 ft | 245 kts | 99° |
| 2026-05-04 20:31 | 60.67509 | 10.69551 | 4983 ft | 250 kts | 131° |
| 2026-05-04 20:31 | 60.66257 | 10.72030 | 4986 ft | 252 kts | 137° |
| 2026-05-04 20:32 | 60.64966 | 10.74445 | 4985 ft | 252 kts | 137° |
| 2026-05-04 20:32 | 60.63671 | 10.76852 | 4984 ft | 252 kts | 137° |
| 2026-05-04 20:32 | 60.62377 | 10.79251 | 4986 ft | 252 kts | 137° |
| 2026-05-04 20:32 | 60.61081 | 10.81649 | 4984 ft | 252 kts | 137° |
| 2026-05-04 20:33 | 60.59786 | 10.84052 | 4974 ft | 253 kts | 137° |
| 2026-05-04 20:33 | 60.58484 | 10.86475 | 4979 ft | 254 kts | 138° |
| 2026-05-04 20:33 | 60.57184 | 10.88897 | 4986 ft | 254 kts | 137° |
| 2026-05-04 20:33 | 60.55888 | 10.91313 | 4978 ft | 252 kts | 139° |
| 2026-05-04 20:34 | 60.54594 | 10.93716 | 4978 ft | 252 kts | 139° |
| 2026-05-04 20:34 | 60.53304 | 10.96104 | 4924 ft | 249 kts | 139° |
| 2026-05-04 20:34 | 60.52016 | 10.98487 | 4973 ft | 252 kts | 139° |
| 2026-05-04 20:34 | 60.50716 | 11.00883 | 4976 ft | 252 kts | 139° |
| 2026-05-04 20:35 | 60.49418 | 11.03268 | 4978 ft | 252 kts | 139° |
| 2026-05-04 20:35 | 60.48119 | 11.05658 | 4977 ft | 252 kts | 139° |
| 2026-05-04 20:35 | 60.46824 | 11.08054 | 4989 ft | 252 kts | 137° |
| 2026-05-04 20:35 | 60.45654 | 11.10704 | 4870 ft | 252 kts | 131° |
| 2026-05-04 20:36 | 60.44519 | 11.13395 | 4535 ft | 251 kts | 131° |
| 2026-05-04 20:36 | 60.43391 | 11.16066 | 4394 ft | 250 kts | 131° |
| 2026-05-04 20:36 | 60.42260 | 11.18743 | 4262 ft | 248 kts | 131° |
| 2026-05-04 20:36 | 60.41126 | 11.21275 | 4120 ft | 238 kts | 142° |
| 2026-05-04 20:37 | 60.39699 | 11.22744 | 3991 ft | 228 kts | 172° |
| 2026-05-04 20:37 | 60.38154 | 11.22733 | 3862 ft | 220 kts | 199° |
| 2026-05-04 20:37 | 60.36685 | 11.21880 | 3735 ft | 220 kts | 201° |
| 2026-05-04 20:37 | 60.35223 | 11.21023 | 3609 ft | 217 kts | 201° |
| 2026-05-04 20:38 | 60.33810 | 11.20205 | 3454 ft | 210 kts | 201° |
| 2026-05-04 20:38 | 60.32438 | 11.19408 | 3302 ft | 202 kts | 202° |
| 2026-05-04 20:38 | 60.31099 | 11.18630 | 3076 ft | 190 kts | 202° |
| 2026-05-04 20:38 | 60.29862 | 11.17910 | 2814 ft | 180 kts | 202° |
| 2026-05-04 20:39 | 60.28697 | 11.17234 | 2593 ft | 165 kts | 203° |
| 2026-05-04 20:39 | 60.27663 | 11.16636 | 2350 ft | 149 kts | 205° |
| 2026-05-04 20:39 | 60.26700 | 11.16076 | 2151 ft | 140 kts | 205° |
| 2026-05-04 20:39 | 60.25778 | 11.15536 | 1957 ft | 137 kts | 205° |
| 2026-05-04 20:40 | 60.24861 | 11.15001 | 1766 ft | 137 kts | 204° |
| 2026-05-04 20:40 | 60.23949 | 11.14471 | 1563 ft | 135 kts | 202° |
| 2026-05-04 20:40 | 60.23045 | 11.13945 | 1362 ft | 135 kts | 203° |
| 2026-05-04 20:40 | 60.22145 | 11.13424 | 1161 ft | 134 kts | 199° |
| 2026-05-04 20:41 | 60.21250 | 11.12905 | 969 ft | 133 kts | 199° |
| 2026-05-04 20:41 | 60.20363 | 11.12391 | 790 ft | 132 kts | 198° |
| 2026-05-04 20:41 | 60.19496 | 11.11889 | 678 ft | 120 kts | 196° |
| 2026-05-04 20:41 | 60.18851 | 11.11516 | 684 ft | 72 kts | 196° |
| 2026-05-04 20:42 | 60.18580 | 11.11353 | 683 ft | 23 kts | 201° |
| 2026-05-04 20:42 | 60.18465 | 11.11188 | 683 ft | 18 kts | 228° |
| 2026-05-04 20:42 | 60.18440 | 11.11097 | 679 ft | 0 kts | 252° |
| 2026-05-04 20:42 | 60.18437 | 11.11016 | 681 ft | 9 kts | 274° |
| 2026-05-04 20:43 | 60.18456 | 11.10878 | 681 ft | 10 kts | 292° |
| 2026-05-04 20:43 | 60.18516 | 11.10769 | 679 ft | 11 kts | 349° |
| 2026-05-04 20:43 | 60.18608 | 11.10802 | 682 ft | 16 kts | 19° |
| 2026-05-04 20:43 | 60.18725 | 11.10873 | 683 ft | 19 kts | 13° |
| 2026-05-04 20:44 | 60.18852 | 11.10953 | 683 ft | 20 kts | 15° |
| 2026-05-04 20:44 | 60.18969 | 11.11022 | 683 ft | 8 kts | 16° |
| 2026-05-04 20:44 | 60.19021 | 11.11054 | 683 ft | 9 kts | 18° |
| 2026-05-04 20:44 | 60.19087 | 11.11094 | 683 ft | 9 kts | 14° |
| 2026-05-04 20:45 | 60.19127 | 11.11095 | 682 ft | 7 kts | 337° |
| 2026-05-04 20:45 | 60.19148 | 11.10987 | 684 ft | 7 kts | 253° |
| 2026-05-04 20:45 | 60.19103 | 11.10934 | 682 ft | 7 kts | 196° |
| 2026-05-04 20:45 | 60.19100 | 11.10931 | 681 ft | 0 kts | 197° |
| 2026-05-04 20:52 | 60.19091 | 11.10925 | 681 ft | 0 kts | 196° |